Time;durP1;ratioP1;P1;durP2;ratioP2;P2;SDS_P1;SDS_P2;PMS_P1;PMS_P2;Temp;Humidity;BMP_temperature;BMP_pressure;BME280_temperature;BME280_humidity;BME280_pressure;Samples;Min_cycle;Max_cycle;Signal;HPM_P1;HPM_P2
2024/03/07 00:00:28;;;;;;;5.57;4.80;;;;;;;;;;10134441;28;20099;-76
2024/03/07 00:05:25;;;;;;;6.70;5.47;;;;;;;;;;10146406;28;20052;-76
2024/03/07 00:10:21;;;;;;;9.95;5.65;;;;;;;;;;10145946;28;20056;-77
2024/03/07 00:15:15;;;;;;;5.82;4.25;;;;;;;;;;10146852;28;20041;-77
2024/03/07 00:20:14;;;;;;;5.10;4.63;;;;;;;;;;10143066;28;20071;-76
2024/03/07 00:25:11;;;;;;;6.68;4.82;;;;;;;;;;10135054;28;20052;-77
2024/03/07 00:30:08;;;;;;;5.75;5.10;;;;;;;;;;10146439;28;20139;-76
2024/03/07 00:35:03;;;;;;;7.45;4.95;;;;;;;;;;10143830;28;20053;-76
2024/03/07 00:39:57;;;;;;;10.23;5.97;;;;;;;;;;10144599;28;20048;-76
2024/03/07 00:44:51;;;;;;;7.18;4.97;;;;;;;;;;10142368;28;20070;-76
2024/03/07 00:49:48;;;;;;;8.55;5.78;;;;;;;;;;10142369;28;20052;-75
2024/03/07 00:54:42;;;;;;;5.45;4.68;;;;;;;;;;10142970;28;20045;-76
2024/03/07 00:59:36;;;;;;;6.60;5.35;;;;;;;;;;10140610;28;20048;-76
2024/03/07 01:04:33;;;;;;;9.30;6.68;;;;;;;;;;10142217;28;20048;-77
2024/03/07 01:09:28;;;;;;;7.60;6.38;;;;;;;;;;10140854;28;20086;-76
2024/03/07 01:14:23;;;;;;;7.50;6.10;;;;;;;;;;10142204;28;20519;-76
2024/03/07 01:19:16;;;;;;;10.45;6.82;;;;;;;;;;10142340;28;20488;-77
2024/03/07 01:24:10;;;;;;;8.13;5.28;;;;;;;;;;10141294;28;20056;-77
2024/03/07 01:29:06;;;;;;;7.78;6.13;;;;;;;;;;10141329;28;20045;-76
2024/03/07 01:34:02;;;;;;;7.05;6.30;;;;;;;;;;10142203;28;20125;-75
2024/03/07 01:38:56;;;;;;;5.80;5.20;;;;;;;;;;10132810;28;20123;-76
2024/03/07 01:43:50;;;;;;;6.18;5.53;;;;;;;;;;10140455;28;20115;-75
2024/03/07 01:48:46;;;;;;;6.18;5.57;;;;;;;;;;10138122;28;20054;-75
2024/03/07 01:53:39;;;;;;;7.90;6.18;;;;;;;;;;10141006;28;20044;-76
2024/03/07 01:58:33;;;;;;;5.63;5.03;;;;;;;;;;10140198;28;20064;-75
2024/03/07 02:03:27;;;;;;;8.95;5.13;;;;;;;;;;10123347;28;20083;-75
2024/03/07 02:08:22;;;;;;;5.82;5.32;;;;;;;;;;10140685;28;20106;-74
2024/03/07 02:13:16;;;;;;;7.43;5.82;;;;;;;;;;10139830;28;20175;-74
2024/03/07 02:18:10;;;;;;;8.45;5.95;;;;;;;;;;10140346;28;20033;-75
2024/03/07 02:23:04;;;;;;;11.05;5.78;;;;;;;;;;10137051;28;20063;-75
2024/03/07 02:27:57;;;;;;;7.45;5.38;;;;;;;;;;10140855;28;20057;-75
2024/03/07 02:32:54;;;;;;;11.10;5.22;;;;;;;;;;10140460;28;20049;-76
2024/03/07 02:37:49;;;;;;;5.75;5.15;;;;;;;;;;10138995;28;20732;-76
2024/03/07 02:42:43;;;;;;;5.47;4.97;;;;;;;;;;10140280;28;20514;-76
2024/03/07 02:47:38;;;;;;;5.65;5.03;;;;;;;;;;10141850;28;20179;-76
2024/03/07 02:52:33;;;;;;;9.45;5.53;;;;;;;;;;10147539;28;20386;-76
2024/03/07 02:57:27;;;;;;;6.35;4.53;;;;;;;;;;10140348;28;20055;-77
2024/03/07 03:02:21;;;;;;;11.93;5.70;;;;;;;;;;10147690;28;20068;-77
2024/03/07 03:07:17;;;;;;;5.93;4.25;;;;;;;;;;10147189;28;20056;-76
2024/03/07 03:12:11;;;;;;;6.88;4.32;;;;;;;;;;10146578;28;20052;-76
2024/03/07 03:17:08;;;;;;;9.05;5.13;;;;;;;;;;10146153;28;20143;-76
2024/03/07 03:22:03;;;;;;;7.47;4.07;;;;;;;;;;10146345;28;20106;-75
2024/03/07 03:26:57;;;;;;;9.55;5.38;;;;;;;;;;10143777;28;20067;-76
2024/03/07 03:31:52;;;;;;;7.05;4.32;;;;;;;;;;10141687;28;20069;-75
2024/03/07 03:36:45;;;;;;;4.93;4.47;;;;;;;;;;10145267;28;20047;-76
2024/03/07 03:41:39;;;;;;;5.00;4.43;;;;;;;;;;10145122;28;20087;-75
2024/03/07 03:46:33;;;;;;;6.35;4.47;;;;;;;;;;10142372;28;20076;-76
2024/03/07 03:51:27;;;;;;;6.43;4.93;;;;;;;;;;10145052;28;20496;-75
2024/03/07 03:56:20;;;;;;;5.10;4.60;;;;;;;;;;10143649;28;20102;-76
2024/03/07 04:01:16;;;;;;;6.43;4.95;;;;;;;;;;10144890;28;20055;-75
2024/03/07 04:06:10;;;;;;;9.57;5.00;;;;;;;;;;10134836;28;20088;-76
2024/03/07 04:11:05;;;;;;;5.72;4.93;;;;;;;;;;10144354;28;20059;-76
2024/03/07 04:15:59;;;;;;;6.18;5.40;;;;;;;;;;10143235;28;20080;-77
2024/03/07 04:20:54;;;;;;;7.25;5.53;;;;;;;;;;10140394;28;20439;-75
2024/03/07 04:25:48;;;;;;;7.35;4.45;;;;;;;;;;10143620;28;20064;-76
2024/03/07 04:30:42;;;;;;;9.75;5.53;;;;;;;;;;10142442;28;20492;-76
2024/03/07 04:35:37;;;;;;;14.25;5.72;;;;;;;;;;10139399;28;20063;-77
2024/03/07 04:40:31;;;;;;;15.27;5.63;;;;;;;;;;10143201;28;20048;-77
2024/03/07 04:45:26;;;;;;;5.65;4.32;;;;;;;;;;10142276;28;20068;-77
2024/03/07 04:50:20;;;;;;;6.65;5.05;;;;;;;;;;10142419;28;20048;-77
2024/03/07 04:55:14;;;;;;;9.60;5.15;;;;;;;;;;10142856;28;20052;-76
2024/03/07 05:00:14;;;;;;;5.22;4.68;;;;;;;;;;10142949;28;20056;-75
2024/03/07 05:05:10;;;;;;;5.68;4.75;;;;;;;;;;10134952;28;20109;-75
2024/03/07 05:10:06;;;;;;;8.52;6.20;;;;;;;;;;10141652;28;20072;-75
2024/03/07 05:15:03;;;;;;;7.40;5.72;;;;;;;;;;10142710;28;20103;-75
2024/03/07 05:19:59;;;;;;;5.88;4.57;;;;;;;;;;10142215;28;20531;-75
2024/03/07 05:24:53;;;;;;;6.18;4.90;;;;;;;;;;10135113;28;20052;-75
2024/03/07 05:29:55;;;;;;;7.13;5.32;;;;;;;;;;10131817;28;20072;-75
2024/03/07 05:34:49;;;;;;;7.75;5.90;;;;;;;;;;10141453;28;20056;-76
2024/03/07 05:40:03;;;;;;;12.50;10.43;;;;;;;;;;10140076;28;20057;-76
2024/03/07 05:45:17;;;;;;;25.15;19.77;;;;;;;;;;10141173;28;20048;-74
2024/03/07 05:50:30;;;;;;;7.47;6.63;;;;;;;;;;10137901;28;20139;-75
2024/03/07 05:55:24;;;;;;;11.13;8.63;;;;;;;;;;10141728;28;20057;-76
2024/03/07 06:00:26;;;;;;;24.42;18.35;;;;;;;;;;10140106;28;20511;-77
2024/03/07 06:05:22;;;;;;;39.85;30.77;;;;;;;;;;10136557;28;20166;-76
2024/03/07 06:10:16;;;;;;;13.63;9.88;;;;;;;;;;10140837;28;20071;-77
2024/03/07 06:15:10;;;;;;;12.43;6.43;;;;;;;;;;10137670;28;20431;-76
2024/03/07 06:20:22;;;;;;;7.18;5.03;;;;;;;;;;10138101;28;20048;-76
2024/03/07 06:25:20;;;;;;;10.73;8.20;;;;;;;;;;10146217;28;20059;-77
2024/03/07 06:30:36;;;;;;;7.93;5.80;;;;;;;;;;10146837;28;20488;-77
2024/03/07 06:35:30;;;;;;;17.05;9.73;;;;;;;;;;10124717;28;20117;-77
2024/03/07 06:40:25;;;;;;;16.70;8.38;;;;;;;;;;10142376;28;20076;-76
2024/03/07 06:45:24;;;;;;;5.40;4.22;;;;;;;;;;10143065;28;20048;-82
2024/03/07 06:50:19;;;;;;;7.75;4.70;;;;;;;;;;10124811;28;20065;-81
2024/03/07 06:55:29;;;;;;;5.35;3.40;;;;;;;;;;10149791;28;20127;-82
2024/03/07 07:00:22;;;;;;;6.50;4.60;;;;;;;;;;10149417;28;20044;-81
2024/03/07 07:05:18;;;;;;;8.20;3.67;;;;;;;;;;10149098;28;20131;-78
2024/03/07 07:10:17;;;;;;;5.25;3.22;;;;;;;;;;10149371;28;20105;-79
2024/03/07 07:15:15;;;;;;;3.00;2.42;;;;;;;;;;10135829;28;20049;-78
2024/03/07 07:20:10;;;;;;;3.53;2.53;;;;;;;;;;10149197;28;20044;-79
2024/03/07 07:25:04;;;;;;;7.43;6.32;;;;;;;;;;10148802;28;20056;-81
2024/03/07 07:29:59;;;;;;;9.25;7.43;;;;;;;;;;10148640;28;20048;-79
2024/03/07 07:34:55;;;;;;;13.07;7.22;;;;;;;;;;10138652;28;20083;-79
2024/03/07 07:39:49;;;;;;;7.40;4.90;;;;;;;;;;10141261;28;20057;-79
2024/03/07 07:44:44;;;;;;;7.05;4.70;;;;;;;;;;10146684;28;20183;-81
2024/03/07 07:49:39;;;;;;;5.82;5.25;;;;;;;;;;10146532;28;20135;-79
2024/03/07 07:54:33;;;;;;;7.13;4.03;;;;;;;;;;10134128;28;20515;-80
2024/03/07 07:59:26;;;;;;;5.00;3.67;;;;;;;;;;10146375;28;20114;-79
2024/03/07 08:04:21;;;;;;;7.72;4.10;;;;;;;;;;10134455;28;20068;-76
2024/03/07 08:09:16;;;;;;;4.63;3.20;;;;;;;;;;10161427;28;20045;-75
2024/03/07 08:14:10;;;;;;;5.40;3.70;;;;;;;;;;10145383;28;20147;-75
2024/03/07 08:19:06;;;;;;;3.85;2.00;;;;;;;;;;10145783;28;20412;-75
2024/03/07 08:24:03;;;;;;;7.95;3.10;;;;;;;;;;10132428;28;20057;-76
2024/03/07 08:28:57;;;;;;;3.00;2.65;;;;;;;;;;10135785;28;20061;-75
2024/03/07 08:33:52;;;;;;;6.13;5.53;;;;;;;;;;10145173;28;20048;-75
2024/03/07 08:38:46;;;;;;;7.72;5.35;;;;;;;;;;10145430;28;20144;-75
2024/03/07 08:43:41;;;;;;;13.88;5.20;;;;;;;;;;10158982;28;20450;-77
2024/03/07 08:48:36;;;;;;;7.78;5.38;;;;;;;;;;10143076;28;20055;-75
2024/03/07 08:53:30;;;;;;;7.57;4.78;;;;;;;;;;10131038;28;20076;-75
2024/03/07 08:58:25;;;;;;;6.82;4.38;;;;;;;;;;10142577;28;20132;-72
2024/03/07 09:03:21;;;;;;;4.93;3.78;;;;;;;;;;10142474;28;20053;-75
2024/03/07 09:08:16;;;;;;;4.60;3.75;;;;;;;;;;10143804;28;20044;-75
2024/03/07 09:13:10;;;;;;;6.13;3.72;;;;;;;;;;10144519;28;20492;-76
2024/03/07 09:18:05;;;;;;;6.68;4.07;;;;;;;;;;10144340;28;20417;-76
2024/03/07 09:23:00;;;;;;;4.40;3.40;;;;;;;;;;10140032;28;20508;-76
2024/03/07 09:27:56;;;;;;;7.50;3.50;;;;;;;;;;10143216;28;20081;-76
2024/03/07 09:32:49;;;;;;;6.63;3.65;;;;;;;;;;10123346;28;20067;-75
2024/03/07 09:37:45;;;;;;;7.10;3.90;;;;;;;;;;10143182;28;20068;-74
2024/03/07 09:42:51;;;;;;;4.43;3.90;;;;;;;;;;10143203;28;20102;-75
2024/03/07 09:47:48;;;;;;;3.95;3.63;;;;;;;;;;10143328;28;20491;-75
2024/03/07 09:52:41;;;;;;;6.30;3.53;;;;;;;;;;10143020;28;20068;-76
2024/03/07 09:57:36;;;;;;;3.20;2.83;;;;;;;;;;10128306;28;20060;-77
2024/03/07 10:02:33;;;;;;;2.90;2.55;;;;;;;;;;10145142;28;20131;-75
2024/03/07 10:07:29;;;;;;;4.72;3.17;;;;;;;;;;10132620;28;20508;-75
2024/03/07 10:12:23;;;;;;;3.45;3.15;;;;;;;;;;10147929;28;20577;-75
2024/03/07 10:17:18;;;;;;;7.10;4.45;;;;;;;;;;10142493;28;20125;-75
2024/03/07 10:22:12;;;;;;;4.75;3.20;;;;;;;;;;10149662;28;20147;-78
2024/03/07 10:27:07;;;;;;;4.03;3.00;;;;;;;;;;10149711;28;20144;-75
2024/03/07 10:32:01;;;;;;;5.95;3.53;;;;;;;;;;10143839;28;20099;-74
2024/03/07 10:36:58;;;;;;;8.45;4.38;;;;;;;;;;10146326;28;20067;-75
2024/03/07 10:41:53;;;;;;;4.38;3.58;;;;;;;;;;10144260;28;20083;-75
2024/03/07 10:46:54;;;;;;;4.03;2.72;;;;;;;;;;10149247;28;20055;-75
2024/03/07 10:51:58;;;;;;;5.53;3.25;;;;;;;;;;10148919;28;20048;-75
2024/03/07 10:57:21;;;;;;;4.22;2.33;;;;;;;;;;10131001;28;20086;-74
2024/03/07 11:02:36;;;;;;;3.58;2.83;;;;;;;;;;10148499;28;20053;-74
2024/03/07 11:07:37;;;;;;;3.55;2.97;;;;;;;;;;10146306;28;20060;-75
2024/03/07 11:12:34;;;;;;;1.73;1.60;;;;;;;;;;10131012;28;20500;-75
2024/03/07 11:17:30;;;;;;;3.03;2.38;;;;;;;;;;10141785;28;20091;-75
2024/03/07 11:22:30;;;;;;;1.48;1.35;;;;;;;;;;10148510;28;20059;-74
2024/03/07 11:27:26;;;;;;;3.38;2.50;;;;;;;;;;10148217;28;20045;-75
2024/03/07 11:32:23;;;;;;;1.90;1.70;;;;;;;;;;10141783;28;20061;-75
2024/03/07 11:37:22;;;;;;;2.30;2.00;;;;;;;;;;10148038;28;20091;-74
2024/03/07 11:42:30;;;;;;;;;;;;;;;;;;10147845;28;20052;-75
2024/03/07 11:47:24;;;;;;;6.95;1.63;;;;;;;;;;10140402;28;20011;-75
2024/03/07 11:52:20;;;;;;;2.22;1.35;;;;;;;;;;10140743;28;20048;-74
2024/03/07 11:57:26;;;;;;;3.13;1.80;;;;;;;;;;10146378;28;20048;-75
2024/03/07 12:02:22;;;;;;;3.63;2.17;;;;;;;;;;10146187;28;20068;-75
2024/03/07 12:07:22;;;;;;;4.78;2.72;;;;;;;;;;10146761;28;20056;-75
2024/03/07 12:12:18;;;;;;;3.38;1.65;;;;;;;;;;10127427;28;20053;-75
2024/03/07 12:17:12;;;;;;;3.92;2.28;;;;;;;;;;10144367;28;20098;-77
2024/03/07 12:22:12;;;;;;;3.10;1.58;;;;;;;;;;10143987;28;20067;-76
2024/03/07 12:27:10;;;;;;;1.33;1.23;;;;;;;;;;10131882;28;20052;-77
2024/03/07 12:32:27;;;;;;;5.00;1.63;;;;;;;;;;10139051;28;20106;-76
2024/03/07 12:37:26;;;;;;;2.38;1.45;;;;;;;;;;10132416;28;20535;-76
2024/03/07 12:42:21;;;;;;;3.63;1.70;;;;;;;;;;10144442;28;20058;-77
2024/03/07 12:47:16;;;;;;;4.72;2.15;;;;;;;;;;10144829;28;20091;-76
2024/03/07 12:52:10;;;;;;;4.13;1.90;;;;;;;;;;10144954;28;20047;-76
2024/03/07 12:57:05;;;;;;;3.58;2.35;;;;;;;;;;10144021;28;20052;-76
2024/03/07 13:02:00;;;;;;;1.98;1.55;;;;;;;;;;10136237;28;20059;-75
2024/03/07 13:06:54;;;;;;;2.20;1.60;;;;;;;;;;10143530;28;20758;-75
2024/03/07 13:11:48;;;;;;;4.28;1.88;;;;;;;;;;10143950;28;20061;-75
2024/03/07 13:16:43;;;;;;;2.30;2.08;;;;;;;;;;10143690;28;20106;-77
2024/03/07 13:21:37;;;;;;;5.88;2.15;;;;;;;;;;10130747;28;20194;-77
2024/03/07 13:26:31;;;;;;;2.13;1.80;;;;;;;;;;10136780;28;20455;-76
2024/03/07 13:31:25;;;;;;;2.88;1.67;;;;;;;;;;10144266;28;20044;-76
2024/03/07 13:36:22;;;;;;;3.33;2.60;;;;;;;;;;10136006;28;20052;-77
2024/03/07 13:41:17;;;;;;;4.50;2.15;;;;;;;;;;10143517;28;20056;-78
2024/03/07 13:46:12;;;;;;;6.00;2.20;;;;;;;;;;10143031;28;20526;-76
2024/03/07 13:51:08;;;;;;;3.75;2.20;;;;;;;;;;10143307;28;20459;-78
2024/03/07 13:56:13;;;;;;;5.15;2.15;;;;;;;;;;10143070;28;20048;-77
2024/03/07 14:01:38;;;;;;;2.38;2.17;;;;;;;;;;10130276;28;20462;-77
2024/03/07 14:06:44;;;;;;;4.95;2.83;;;;;;;;;;10142798;28;20474;-76
2024/03/07 14:11:59;;;;;;;8.27;3.83;;;;;;;;;;10129594;28;20056;-76
2024/03/07 14:17:18;;;;;;;4.78;3.35;;;;;;;;;;10143081;28;20078;-77
2024/03/07 14:22:42;;;;;;;6.13;4.35;;;;;;;;;;10139163;28;20052;-75
2024/03/07 14:27:49;;;;;;;6.32;4.05;;;;;;;;;;10137570;28;20079;-76
2024/03/07 14:32:43;;;;;;;6.65;4.78;;;;;;;;;;10140273;28;20053;-76
2024/03/07 14:38:05;;;;;;;4.53;4.05;;;;;;;;;;10138263;28;20040;-76
2024/03/07 14:43:04;;;;;;;7.93;4.15;;;;;;;;;;10138804;28;20049;-76
2024/03/07 14:48:00;;;;;;;4.97;3.58;;;;;;;;;;10142690;28;20428;-77
2024/03/07 14:52:53;;;;;;;7.97;3.90;;;;;;;;;;10139001;28;20052;-76
2024/03/07 14:57:47;;;;;;;5.65;4.45;;;;;;;;;;10145211;28;20061;-77
2024/03/07 15:02:42;;;;;;;5.22;3.65;;;;;;;;;;10143645;28;20053;-77
2024/03/07 15:07:37;;;;;;;7.63;5.00;;;;;;;;;;10145087;28;20048;-76
2024/03/07 15:12:31;;;;;;;6.38;4.20;;;;;;;;;;10143240;28;20074;-76
2024/03/07 15:17:25;;;;;;;7.40;4.03;;;;;;;;;;10144627;28;20147;-77
2024/03/07 15:22:20;;;;;;;8.13;3.20;;;;;;;;;;10144171;28;20068;-76
2024/03/07 15:27:16;;;;;;;10.05;3.45;;;;;;;;;;10144714;28;20040;-76
2024/03/07 15:32:13;;;;;;;8.25;3.75;;;;;;;;;;10144767;28;20051;-76
2024/03/07 15:37:09;;;;;;;7.22;3.90;;;;;;;;;;10148627;28;20055;-76
2024/03/07 15:42:05;;;;;;;8.27;3.95;;;;;;;;;;10144446;28;20611;-76
2024/03/07 15:46:59;;;;;;;5.38;4.30;;;;;;;;;;10136153;28;20056;-75
2024/03/07 15:51:53;;;;;;;6.38;3.90;;;;;;;;;;10142649;28;20080;-76
2024/03/07 15:56:48;;;;;;;9.65;4.90;;;;;;;;;;10143531;28;20066;-76
2024/03/07 16:01:42;;;;;;;11.13;4.88;;;;;;;;;;10142921;28;20052;-76
2024/03/07 16:06:36;;;;;;;4.45;4.00;;;;;;;;;;10144468;28;20044;-74
2024/03/07 16:11:30;;;;;;;4.90;4.28;;;;;;;;;;10143358;28;20109;-76
2024/03/07 16:16:24;;;;;;;7.32;3.97;;;;;;;;;;10142474;28;20070;-76
2024/03/07 16:21:17;;;;;;;4.10;3.65;;;;;;;;;;10142589;28;20474;-76
2024/03/07 16:26:11;;;;;;;6.90;4.00;;;;;;;;;;10139841;28;20049;-76
2024/03/07 16:31:05;;;;;;;6.63;3.42;;;;;;;;;;10142225;28;20052;-77
2024/03/07 16:36:04;;;;;;;5.38;3.67;;;;;;;;;;10137033;28;20428;-76
2024/03/07 16:40:58;;;;;;;5.35;4.40;;;;;;;;;;10130391;28;20056;-76
2024/03/07 16:45:53;;;;;;;10.90;5.25;;;;;;;;;;10138607;28;20052;-77
2024/03/07 16:50:47;;;;;;;9.98;5.03;;;;;;;;;;10138496;28;20062;-77
2024/03/07 16:55:43;;;;;;;13.30;5.15;;;;;;;;;;10140050;28;20123;-77
2024/03/07 17:00:42;;;;;;;6.40;4.30;;;;;;;;;;10128192;28;20530;-77
2024/03/07 17:05:39;;;;;;;7.93;5.35;;;;;;;;;;10135554;28;20056;-76
2024/03/07 17:10:38;;;;;;;6.47;4.82;;;;;;;;;;10126989;28;20056;-75
2024/03/07 17:15:33;;;;;;;7.78;5.18;;;;;;;;;;10134687;28;20462;-76
2024/03/07 17:20:28;;;;;;;5.07;4.53;;;;;;;;;;10134492;28;20131;-75
2024/03/07 17:25:24;;;;;;;5.18;3.90;;;;;;;;;;10130734;28;20084;-76
2024/03/07 17:30:22;;;;;;;8.57;4.40;;;;;;;;;;10129243;28;20522;-75
2024/03/07 17:35:19;;;;;;;;;;;;;;;;;;10137575;28;20051;-75
2024/03/07 17:40:15;;;;;;;10.93;6.70;;;;;;;;;;10132577;28;20326;-75
2024/03/07 17:45:11;;;;;;;12.52;6.88;;;;;;;;;;10138163;28;20055;-76
2024/03/07 17:50:07;;;;;;;13.70;10.10;;;;;;;;;;10134660;28;20086;-75
2024/03/07 17:55:01;;;;;;;12.68;7.55;;;;;;;;;;10136020;28;20543;-77
2024/03/07 17:59:56;;;;;;;8.85;5.03;;;;;;;;;;10134314;28;20036;-76
2024/03/07 18:04:51;;;;;;;8.95;5.53;;;;;;;;;;10126861;28;20045;-77
2024/03/07 18:09:44;;;;;;;12.32;7.13;;;;;;;;;;10136267;28;20037;-77
2024/03/07 18:14:39;;;;;;;10.48;7.70;;;;;;;;;;10136848;28;20078;-77
2024/03/07 18:19:35;;;;;;;17.85;11.18;;;;;;;;;;10137748;28;20084;-76
2024/03/07 18:24:29;;;;;;;14.77;9.07;;;;;;;;;;10147608;28;20055;-77
2024/03/07 18:29:24;;;;;;;8.43;6.18;;;;;;;;;;10152413;28;20052;-76
2024/03/07 18:34:18;;;;;;;7.60;5.70;;;;;;;;;;10143920;28;20045;-77
2024/03/07 18:39:15;;;;;;;10.10;6.80;;;;;;;;;;10142709;28;20512;-77
2024/03/07 18:44:11;;;;;;;32.70;23.40;;;;;;;;;;10146148;28;20052;-77
2024/03/07 18:49:08;;;;;;;10.82;8.85;;;;;;;;;;10147637;28;20086;-75
2024/03/07 18:54:03;;;;;;;16.05;8.07;;;;;;;;;;10136437;28;20115;-76
2024/03/07 18:58:57;;;;;;;9.65;7.45;;;;;;;;;;10146324;28;20097;-76
2024/03/07 19:03:51;;;;;;;12.20;8.48;;;;;;;;;;10145514;28;20588;-77
2024/03/07 19:08:48;;;;;;;9.88;7.63;;;;;;;;;;10144488;28;20052;-77
2024/03/07 19:13:43;;;;;;;10.18;8.02;;;;;;;;;;10143165;28;20045;-77
2024/03/07 19:18:36;;;;;;;13.95;9.18;;;;;;;;;;10143339;28;20079;-77
2024/03/07 19:23:31;;;;;;;14.10;9.65;;;;;;;;;;10144332;28;20052;-76
2024/03/07 19:28:25;;;;;;;15.77;10.20;;;;;;;;;;10136784;28;20117;-76
2024/03/07 19:33:20;;;;;;;11.98;9.07;;;;;;;;;;10140894;28;20064;-77
2024/03/07 19:38:16;;;;;;;10.65;9.48;;;;;;;;;;10137205;28;20060;-76
2024/03/07 19:43:10;;;;;;;12.13;7.53;;;;;;;;;;10144351;28;20055;-77
2024/03/07 19:48:06;;;;;;;9.68;6.05;;;;;;;;;;10145590;28;20049;-76
2024/03/07 19:53:00;;;;;;;6.88;5.63;;;;;;;;;;10144391;28;20071;-77
2024/03/07 19:57:54;;;;;;;6.38;5.30;;;;;;;;;;10137633;28;20132;-77
2024/03/07 20:02:49;;;;;;;8.32;5.88;;;;;;;;;;10141559;28;20053;-76
2024/03/07 20:07:44;;;;;;;9.45;6.72;;;;;;;;;;10145755;28;20563;-75
2024/03/07 20:12:59;;;;;;;13.43;7.28;;;;;;;;;;10142883;28;20117;-77
2024/03/07 20:17:56;;;;;;;19.08;10.50;;;;;;;;;;10143630;28;20555;-77
2024/03/07 20:23:07;;;;;;;10.18;8.10;;;;;;;;;;10142477;28;20390;-77
2024/03/07 20:28:00;;;;;;;11.18;8.50;;;;;;;;;;10135185;28;20101;-76
2024/03/07 20:32:55;;;;;;;14.23;9.82;;;;;;;;;;10142827;28;20079;-75
2024/03/07 20:37:49;;;;;;;14.57;9.43;;;;;;;;;;10136927;28;20488;-74
2024/03/07 20:42:45;;;;;;;19.38;9.70;;;;;;;;;;10139383;28;20148;-77
2024/03/07 20:47:47;;;;;;;11.63;8.70;;;;;;;;;;10133711;28;20144;-76
2024/03/07 20:52:45;;;;;;;14.20;8.25;;;;;;;;;;10136366;28;20424;-76
2024/03/07 20:57:42;;;;;;;12.90;6.82;;;;;;;;;;10137180;28;20050;-77
2024/03/07 21:02:36;;;;;;;10.63;6.35;;;;;;;;;;10140421;28;20131;-78
2024/03/07 21:07:29;;;;;;;8.20;6.55;;;;;;;;;;10140273;28;20048;-77
2024/03/07 21:12:25;;;;;;;14.77;6.75;;;;;;;;;;10139454;28;20098;-75
2024/03/07 21:17:18;;;;;;;11.07;7.47;;;;;;;;;;10140515;28;20111;-76
2024/03/07 21:22:13;;;;;;;11.45;7.70;;;;;;;;;;10129777;28;20044;-77
2024/03/07 21:27:07;;;;;;;10.25;7.82;;;;;;;;;;10126765;28;20057;-78
2024/03/07 21:32:03;;;;;;;7.20;5.88;;;;;;;;;;10139948;28;20110;-77
2024/03/07 21:36:57;;;;;;;6.95;5.22;;;;;;;;;;10118333;28;20059;-77
2024/03/07 21:41:52;;;;;;;6.20;5.10;;;;;;;;;;10126199;28;20041;-75
2024/03/07 21:46:46;;;;;;;8.48;5.45;;;;;;;;;;10130050;28;20082;-75
2024/03/07 21:51:40;;;;;;;8.55;5.55;;;;;;;;;;10118976;28;20052;-76
2024/03/07 21:56:34;;;;;;;5.25;4.70;;;;;;;;;;10138857;28;20052;-75
2024/03/07 22:01:38;;;;;;;7.75;6.30;;;;;;;;;;10139272;28;20415;-77
2024/03/07 22:06:32;;;;;;;8.75;6.05;;;;;;;;;;10133233;28;20059;-77
2024/03/07 22:11:26;;;;;;;9.50;5.35;;;;;;;;;;10137057;28;20058;-77
2024/03/07 22:16:20;;;;;;;10.23;5.00;;;;;;;;;;10143354;28;20053;-76
2024/03/07 22:21:15;;;;;;;7.43;5.25;;;;;;;;;;10146384;28;20053;-77
2024/03/07 22:26:12;;;;;;;6.03;5.43;;;;;;;;;;10145924;28;20496;-77
2024/03/07 22:31:09;;;;;;;5.78;5.10;;;;;;;;;;10146452;28;20427;-77
2024/03/07 22:36:27;;;;;;;8.73;6.63;;;;;;;;;;10135308;28;20109;-77
2024/03/07 22:41:21;;;;;;;4.85;4.35;;;;;;;;;;10137852;28;20089;-77
2024/03/07 22:46:16;;;;;;;7.95;5.47;;;;;;;;;;10142834;28;20053;-77
2024/03/07 22:51:10;;;;;;;12.90;8.52;;;;;;;;;;10148008;28;20057;-75
2024/03/07 22:56:05;;;;;;;29.00;15.68;;;;;;;;;;10149557;28;20052;-77
2024/03/07 23:00:59;;;;;;;12.45;8.43;;;;;;;;;;10149625;28;20140;-75
2024/03/07 23:05:55;;;;;;;12.85;6.78;;;;;;;;;;10148691;28;20057;-75
2024/03/07 23:10:50;;;;;;;16.27;10.65;;;;;;;;;;10149185;28;20063;-78
2024/03/07 23:15:44;;;;;;;9.27;6.72;;;;;;;;;;10148982;28;20055;-77
2024/03/07 23:20:38;;;;;;;7.93;5.15;;;;;;;;;;10148507;28;20106;-76
2024/03/07 23:25:33;;;;;;;7.18;5.68;;;;;;;;;;10149189;28;20055;-77
2024/03/07 23:30:30;;;;;;;10.80;5.47;;;;;;;;;;10148473;28;20129;-77
2024/03/07 23:35:26;;;;;;;9.20;6.47;;;;;;;;;;10148506;28;20098;-78
2024/03/07 23:40:20;;;;;;;5.63;5.05;;;;;;;;;;10148277;28;20477;-77
2024/03/07 23:45:16;;;;;;;6.07;4.38;;;;;;;;;;10148881;28;20110;-78
2024/03/07 23:50:11;;;;;;;6.22;4.47;;;;;;;;;;10148308;28;20496;-76
2024/03/07 23:55:06;;;;;;;6.85;4.40;;;;;;;;;;10124909;28;20053;-76
